createdAt,value
2023-02-24T00:03:53.323Z,9.82
2023-02-24T00:07:56.480Z,10.70
2023-02-24T00:12:03.314Z,9.48
2023-02-24T00:16:07.238Z,10.02
2023-02-24T00:20:12.546Z,10.50
2023-02-24T00:24:15.597Z,10.07
2023-02-24T00:28:21.502Z,10.45
2023-02-24T00:32:24.754Z,11.02
2023-02-24T00:36:29.789Z,10.25
2023-02-24T00:40:37.186Z,10.40
2023-02-24T00:44:45.162Z,10.32
2023-02-24T00:48:49.286Z,11.32
2023-02-24T00:52:52.357Z,9.00
2023-02-24T00:56:57.088Z,9.85
2023-02-24T01:01:02.351Z,10.35
2023-02-24T01:05:06.171Z,11.20
2023-02-24T01:09:12.141Z,11.25
2023-02-24T01:13:15.125Z,11.50
2023-02-24T01:17:21.064Z,10.32
2023-02-24T01:21:25.150Z,10.35
2023-02-24T01:25:31.440Z,10.05
2023-02-24T01:29:39.274Z,10.75
2023-02-24T01:33:45.919Z,10.27
2023-02-24T01:37:49.292Z,10.60
2023-02-24T01:41:53.175Z,11.30
2023-02-24T01:45:57.716Z,10.93
2023-02-24T01:50:03.136Z,11.07
2023-02-24T01:54:10.029Z,10.50
2023-02-24T01:58:18.552Z,11.48
2023-02-24T02:02:23.944Z,10.90
2023-02-24T02:06:29.670Z,10.25
2023-02-24T02:10:33.955Z,11.48
2023-02-24T02:14:53.587Z,10.43
2023-02-24T02:19:07.668Z,10.35
2023-02-24T02:23:36.978Z,11.20
2023-02-24T02:28:12.908Z,11.68
2023-02-24T02:32:42.003Z,11.98
2023-02-24T02:36:59.149Z,11.25
2023-02-24T02:41:09.696Z,9.40
2023-02-24T02:45:19.008Z,10.15
2023-02-24T02:49:25.552Z,10.75
2023-02-24T02:53:37.482Z,10.48
2023-02-24T02:57:47.236Z,11.18
2023-02-24T03:01:55.505Z,11.60
2023-02-24T03:06:06.274Z,11.38
2023-02-24T03:10:20.855Z,11.45
2023-02-24T03:14:29.407Z,10.82
2023-02-24T03:18:34.567Z,10.82
2023-02-24T03:22:43.795Z,10.38
2023-02-24T03:26:53.478Z,10.10
2023-02-24T03:31:04.892Z,9.10
2023-02-24T03:35:15.134Z,10.55
2023-02-24T03:39:18.813Z,10.05
2023-02-24T03:43:40.369Z,10.20
2023-02-24T03:47:46.832Z,11.23
2023-02-24T03:51:59.717Z,9.25
2023-02-24T03:56:15.962Z,9.00
2023-02-24T04:00:34.338Z,11.23
2023-02-24T04:04:45.757Z,10.55
2023-02-24T04:09:13.197Z,9.70
2023-02-24T04:13:35.476Z,10.27
2023-02-24T04:17:50.149Z,10.43
2023-02-24T04:21:55.743Z,10.02
2023-02-24T04:26:03.101Z,11.60
2023-02-24T04:30:10.740Z,10.55
2023-02-24T04:34:20.035Z,10.57
2023-02-24T04:38:24.288Z,10.77
2023-02-24T04:42:27.989Z,12.05
2023-02-24T04:46:33.033Z,11.98
2023-02-24T04:50:38.390Z,11.55
2023-02-24T04:54:41.522Z,10.30
2023-02-24T04:58:46.398Z,11.20
2023-02-24T05:02:50.535Z,11.98
2023-02-24T05:06:57.395Z,12.05
2023-02-24T05:11:04.006Z,11.02
2023-02-24T05:15:09.071Z,12.50
2023-02-24T05:19:29.914Z,11.98
2023-02-24T05:23:36.428Z,11.43
2023-02-24T05:27:39.514Z,12.20
2023-02-24T05:31:42.752Z,11.70
2023-02-24T05:35:45.905Z,11.55
2023-02-24T05:39:50.387Z,10.60
2023-02-24T05:43:56.819Z,12.10
2023-02-24T05:47:59.816Z,11.88
2023-02-24T05:52:07.868Z,12.35
2023-02-24T05:56:12.888Z,12.88
2023-02-24T06:00:17.434Z,12.20
2023-02-24T06:04:39.265Z,12.52
2023-02-24T06:08:49.298Z,12.65
2023-02-24T06:12:55.182Z,12.38
2023-02-24T06:17:00.917Z,13.32
2023-02-24T06:21:04.715Z,13.52
2023-02-24T06:25:09.354Z,13.13
2023-02-24T06:29:15.651Z,12.80
2023-02-24T06:33:18.771Z,12.60
2023-02-24T06:37:22.973Z,12.05
2023-02-24T06:41:29.525Z,12.32
2023-02-24T06:45:33.955Z,11.95
2023-02-24T06:49:37.710Z,12.38
2023-02-24T06:53:43.234Z,13.10
2023-02-24T06:57:46.475Z,12.63
2023-02-24T07:01:50.917Z,12.80
2023-02-24T07:06:11.069Z,12.27
2023-02-24T07:10:14.585Z,12.07
2023-02-24T07:14:17.886Z,12.50
2023-02-24T07:18:22.657Z,12.90
2023-02-24T07:22:25.939Z,12.98
2023-02-24T07:26:30.392Z,13.90
2023-02-24T07:30:34.409Z,11.43
2023-02-24T07:34:40.447Z,12.80
2023-02-24T07:38:44.157Z,12.15
2023-02-24T07:42:47.859Z,12.65
2023-02-24T07:46:52.723Z,12.05
2023-02-24T07:50:59.461Z,11.70
2023-02-24T07:55:03.014Z,11.75
2023-02-24T07:59:09.787Z,13.02
2023-02-24T08:03:13.635Z,12.65
2023-02-24T08:07:24.294Z,11.68
2023-02-24T08:11:35.645Z,12.70
2023-02-24T08:15:38.731Z,12.35
2023-02-24T08:19:42.816Z,12.20
2023-02-24T08:23:47.838Z,11.00
2023-02-24T08:28:12.526Z,12.57
2023-02-24T08:32:18.460Z,11.85
2023-02-24T08:36:26.111Z,12.10
2023-02-24T08:40:50.211Z,12.23
2023-02-24T08:44:53.829Z,11.63
2023-02-24T08:49:00.694Z,12.00
2023-02-24T08:53:03.862Z,10.65
2023-02-24T08:57:09.096Z,10.48
2023-02-24T09:01:20.106Z,10.23
2023-02-24T09:05:25.280Z,9.88
2023-02-24T09:09:28.373Z,11.13
2023-02-24T09:13:33.926Z,10.05
2023-02-24T09:17:50.104Z,9.77
2023-02-24T09:22:21.298Z,10.35
2023-02-24T09:26:24.776Z,9.48
2023-02-24T09:30:51.019Z,10.38
2023-02-24T09:34:54.377Z,10.15
2023-02-24T09:39:14.580Z,10.07
2023-02-24T09:43:21.791Z,9.43
2023-02-24T09:47:40.756Z,9.25
2023-02-24T09:51:44.473Z,9.43
2023-02-24T09:56:03.810Z,9.75
2023-02-24T10:00:25.815Z,9.18
2023-02-24T10:04:49.408Z,8.77
2023-02-24T10:08:58.447Z,7.93
2023-02-24T10:13:14.844Z,8.30
2023-02-24T10:17:30.780Z,8.00
2023-02-24T10:21:49.747Z,8.93
2023-02-24T10:25:56.606Z,8.43
2023-02-24T10:30:11.370Z,8.25
2023-02-24T10:34:21.140Z,7.80
2023-02-24T10:38:28.698Z,7.88
2023-02-24T10:42:34.490Z,7.70
2023-02-24T10:46:41.890Z,7.18
2023-02-24T10:50:55.966Z,6.45
2023-02-24T10:55:08.682Z,5.40
2023-02-24T10:59:32.963Z,6.00
2023-02-24T11:03:42.190Z,5.05
2023-02-24T11:07:53.656Z,4.55
2023-02-24T11:12:18.483Z,5.15
2023-02-24T11:16:38.776Z,5.13
2023-02-24T11:20:49.745Z,5.00
2023-02-24T11:24:54.364Z,4.88
2023-02-24T11:29:10.973Z,4.95
2023-02-24T11:33:25.478Z,4.45
2023-02-24T11:37:38.284Z,4.70
2023-02-24T11:41:46.364Z,4.75
2023-02-24T11:45:55.397Z,4.65
2023-02-24T11:50:07.176Z,4.32
2023-02-24T11:54:14.253Z,4.22
2023-02-24T11:58:24.849Z,4.18
2023-02-24T12:02:39.729Z,3.42
2023-02-24T12:06:49.307Z,3.53
2023-02-24T12:10:57.766Z,3.63
2023-02-24T12:15:04.840Z,3.40
2023-02-24T12:19:20.063Z,3.60
2023-02-24T12:23:27.181Z,3.13
2023-02-24T12:27:42.300Z,2.40
2023-02-24T12:31:54.477Z,2.90
2023-02-24T12:36:06.074Z,2.20
2023-02-24T12:40:22.569Z,1.95
2023-02-24T12:44:38.220Z,2.35
2023-02-24T12:49:00.980Z,4.68
2023-02-24T12:53:16.287Z,7.10
2023-02-24T12:57:28.093Z,7.53
2023-02-24T13:01:37.963Z,7.45
2023-02-24T13:05:47.463Z,7.95
2023-02-24T13:10:01.697Z,7.47
2023-02-24T13:14:13.514Z,7.28
2023-02-24T13:18:25.088Z,7.07
2023-02-24T13:22:31.472Z,7.18
2023-02-24T13:26:35.887Z,7.70
2023-02-24T13:30:42.066Z,7.63
2023-02-24T13:34:46.314Z,8.20
2023-02-24T13:38:51.219Z,7.85
2023-02-24T13:43:01.667Z,8.25
2023-02-24T13:47:40.466Z,8.43
2023-02-24T13:52:04.940Z,8.02
2023-02-24T13:56:23.128Z,7.10
2023-02-24T14:00:50.880Z,7.80
2023-02-24T14:04:56.726Z,7.80
2023-02-24T14:09:03.599Z,8.20
2023-02-24T14:13:09.609Z,5.95
2023-02-24T14:17:25.332Z,5.95
2023-02-24T14:21:30.772Z,5.95
2023-02-24T14:25:39.103Z,4.35
2023-02-24T14:29:44.329Z,1.52
2023-02-24T14:33:58.074Z,1.55
2023-02-24T14:38:02.329Z,1.70
2023-02-24T14:42:13.475Z,1.92
2023-02-24T14:46:17.398Z,1.83
2023-02-24T14:50:26.464Z,1.77
2023-02-24T14:54:43.090Z,1.70
2023-02-24T14:58:50.907Z,2.00
2023-02-24T15:03:03.367Z,1.90
2023-02-24T15:07:17.433Z,1.73
2023-02-24T15:11:23.834Z,2.20
2023-02-24T15:15:29.560Z,2.05
2023-02-24T15:19:36.074Z,2.17
2023-02-24T15:23:40.509Z,1.55
2023-02-24T15:27:52.352Z,1.88
2023-02-24T15:31:57.077Z,1.90
2023-02-24T15:36:01.271Z,2.22
2023-02-24T15:40:09.305Z,2.35
2023-02-24T15:44:29.408Z,1.98
2023-02-24T15:48:32.397Z,2.08
2023-02-24T15:52:37.670Z,2.35
2023-02-24T15:56:43.444Z,2.55
2023-02-24T16:00:46.880Z,2.30
2023-02-24T16:04:50.760Z,2.40
2023-02-24T16:08:57.114Z,2.33
2023-02-24T16:13:03.446Z,2.20
2023-02-24T16:17:10.049Z,2.10
2023-02-24T16:21:13.918Z,2.65
2023-02-24T16:25:17.697Z,2.30
2023-02-24T16:29:22.095Z,2.40
2023-02-24T16:33:25.246Z,2.30
2023-02-24T16:37:30.518Z,2.45
2023-02-24T16:41:33.600Z,2.55
2023-02-24T16:45:38.550Z,2.10
2023-02-24T16:49:42.388Z,2.78
2023-02-24T16:53:45.426Z,1.95
2023-02-24T16:57:48.659Z,2.30
2023-02-24T17:01:53.532Z,2.45
2023-02-24T17:05:57.800Z,2.47
2023-02-24T17:10:00.999Z,2.70
2023-02-24T17:14:04.664Z,1.92
2023-02-24T17:18:09.935Z,2.45
2023-02-24T17:22:13.025Z,2.28
2023-02-24T17:26:16.676Z,2.70
2023-02-24T17:30:23.142Z,2.80
2023-02-24T17:34:27.464Z,2.35
2023-02-24T17:38:30.552Z,2.90
2023-02-24T17:42:33.800Z,2.92
2023-02-24T17:46:37.019Z,3.22
2023-02-24T17:50:44.671Z,3.45
2023-02-24T17:54:47.730Z,3.22
2023-02-24T17:58:50.811Z,2.70
2023-02-24T18:02:54.592Z,3.08
2023-02-24T18:06:59.020Z,2.55
2023-02-24T18:11:02.386Z,2.72
2023-02-24T18:15:09.356Z,2.75
2023-02-24T18:19:12.883Z,2.88
2023-02-24T18:23:17.364Z,2.70
2023-02-24T18:27:22.333Z,2.90
2023-02-24T18:31:26.959Z,2.90
2023-02-24T18:35:31.379Z,3.00
2023-02-24T18:39:35.813Z,2.80
2023-02-24T18:43:39.524Z,3.10
2023-02-24T18:47:42.623Z,2.83
2023-02-24T18:51:48.785Z,3.60
2023-02-24T18:55:59.873Z,3.10
2023-02-24T19:00:03.834Z,3.28
2023-02-24T19:04:08.640Z,2.78
2023-02-24T19:08:11.797Z,3.25
2023-02-24T19:12:17.133Z,3.55
2023-02-24T19:16:21.288Z,2.88
2023-02-24T19:20:24.560Z,3.97
2023-02-24T19:24:28.103Z,3.28
2023-02-24T19:28:32.440Z,3.90
2023-02-24T19:32:35.623Z,4.00
2023-02-24T19:36:39.104Z,3.90
2023-02-24T19:40:42.270Z,3.80
2023-02-24T19:44:46.655Z,3.65
2023-02-24T19:48:50.011Z,3.97
2023-02-24T19:52:52.988Z,4.50
2023-02-24T19:56:57.932Z,3.53
2023-02-24T20:01:09.266Z,4.03
2023-02-24T20:05:12.425Z,4.35
2023-02-24T20:09:17.869Z,4.65
2023-02-24T20:13:20.945Z,4.18
2023-02-24T20:17:25.746Z,4.45
2023-02-24T20:21:29.342Z,4.60
2023-02-24T20:25:32.387Z,4.53
2023-02-24T20:29:36.385Z,4.80
2023-02-24T20:33:42.535Z,4.40
2023-02-24T20:37:45.601Z,3.80
2023-02-24T20:41:50.995Z,3.03
2023-02-24T20:45:54.285Z,2.50
2023-02-24T20:49:58.954Z,2.65
2023-02-24T20:54:02.095Z,1.98
2023-02-24T20:58:05.105Z,1.48
2023-02-24T21:02:09.748Z,2.00
2023-02-24T21:06:15.577Z,2.00
2023-02-24T21:10:19.444Z,1.60
2023-02-24T21:14:22.999Z,2.03
2023-02-24T21:18:26.424Z,1.40
2023-02-24T21:22:31.286Z,1.90
2023-02-24T21:26:34.330Z,1.80
2023-02-24T21:30:37.295Z,1.75
2023-02-24T21:34:40.470Z,1.73
2023-02-24T21:38:46.931Z,1.48
2023-02-24T21:42:50.024Z,1.50
2023-02-24T21:46:53.107Z,1.23
2023-02-24T21:51:00.045Z,1.25
2023-02-24T21:55:05.494Z,1.50
2023-02-24T21:59:11.293Z,1.40
2023-02-24T22:03:14.309Z,1.50
2023-02-24T22:07:17.515Z,1.70
2023-02-24T22:11:22.670Z,1.20
2023-02-24T22:15:25.753Z,1.67
2023-02-24T22:19:29.072Z,1.85
2023-02-24T22:23:32.147Z,2.17
2023-02-24T22:27:36.602Z,1.30
2023-02-24T22:31:43.554Z,1.75
2023-02-24T22:35:46.868Z,1.65
2023-02-24T22:39:49.944Z,1.30
2023-02-24T22:43:54.751Z,1.20
2023-02-24T22:47:59.427Z,1.35
2023-02-24T22:52:02.453Z,1.40
2023-02-24T23:00:35.503Z,1.63
2023-02-24T23:04:38.614Z,1.33
2023-02-24T23:08:43.668Z,1.23
2023-02-24T23:12:51.455Z,1.55
2023-02-24T23:16:56.338Z,1.63
2023-02-24T23:21:01.007Z,1.30
2023-02-24T23:25:04.041Z,1.10
2023-02-24T23:29:08.217Z,1.65
2023-02-24T23:33:12.598Z,1.10
2023-02-24T23:37:16.744Z,1.10
2023-02-24T23:41:19.928Z,1.10
2023-02-24T23:45:24.203Z,1.05
2023-02-24T23:49:42.437Z,1.17
2023-02-24T23:53:49.743Z,1.13
2023-02-24T23:57:52.748Z,1.13
